createdAt,value
2022-09-11T00:00:18.438Z,100092.38
2022-09-11T00:05:21.067Z,100091.38
2022-09-11T00:10:24.331Z,100094.50
2022-09-11T00:15:28.445Z,100092.97
2022-09-11T00:20:33.764Z,100102.50
2022-09-11T00:25:37.012Z,100101.50
2022-09-11T00:30:40.930Z,100092.69
2022-09-11T00:35:44.583Z,100101.09
2022-09-11T00:40:47.385Z,100110.22
2022-09-11T00:45:57.763Z,100103.38
2022-09-11T00:51:00.384Z,100107.66
2022-09-11T00:56:04.324Z,100105.09
2022-09-11T01:01:09.098Z,100105.53
2022-09-11T01:06:11.784Z,100104.00
2022-09-11T01:11:24.073Z,100109.41
2022-09-11T01:16:33.122Z,100103.44
2022-09-11T01:21:45.019Z,100099.88
2022-09-11T01:26:55.915Z,100107.13
2022-09-11T01:32:05.749Z,100104.16
2022-09-11T01:37:09.758Z,100108.56
2022-09-11T01:42:14.820Z,100101.63
2022-09-11T01:47:19.610Z,100101.22
2022-09-11T01:52:24.234Z,100104.09
2022-09-11T01:57:30.581Z,100103.34
2022-09-11T02:02:36.726Z,100107.19
2022-09-11T02:07:42.476Z,100107.34
2022-09-11T02:12:46.250Z,100106.22
2022-09-11T02:17:52.942Z,100108.75
2022-09-11T02:23:01.026Z,100107.22
2022-09-11T02:28:04.046Z,100106.50
2022-09-11T02:33:27.953Z,100101.13
2022-09-11T02:38:34.181Z,100108.66
2022-09-11T02:43:42.415Z,100109.78
2022-09-11T02:48:53.576Z,100103.69
2022-09-11T02:54:01.815Z,100108.38
2022-09-11T02:59:06.777Z,100111.38
2022-09-11T03:04:11.681Z,100115.91
2022-09-11T03:09:14.402Z,100119.69
2022-09-11T03:14:18.367Z,100121.53
2022-09-11T03:19:22.314Z,100127.78
2022-09-11T03:24:26.332Z,100124.53
2022-09-11T03:29:29.059Z,100128.78
2022-09-11T03:34:34.337Z,100135.59
2022-09-11T03:39:37.322Z,100140.25
2022-09-11T03:44:40.997Z,100139.41
2022-09-11T03:49:48.331Z,100148.63
2022-09-11T03:54:51.895Z,100146.94
2022-09-11T03:59:56.628Z,100158.72
2022-09-11T04:05:00.664Z,100152.63
2022-09-11T04:10:03.401Z,100168.78
2022-09-11T04:15:07.589Z,100162.53
2022-09-11T04:20:12.624Z,100169.75
2022-09-11T04:25:15.780Z,100171.88
2022-09-11T04:30:19.822Z,100173.56
2022-09-11T04:35:26.963Z,100178.13
2022-09-11T04:40:33.180Z,100181.81
2022-09-11T04:45:36.537Z,100181.81
2022-09-11T04:50:42.276Z,100190.03
2022-09-11T04:56:03.518Z,100195.44
2022-09-11T05:01:14.652Z,100197.28
2022-09-11T05:06:20.661Z,100197.41
2022-09-11T05:11:25.904Z,100211.00
2022-09-11T05:16:29.655Z,100207.59
2022-09-11T05:21:34.961Z,100209.28
2022-09-11T05:26:38.344Z,100221.91
2022-09-11T05:31:43.026Z,100228.31
2022-09-11T05:36:49.327Z,100230.16
2022-09-11T05:41:53.164Z,100236.53
2022-09-11T05:46:55.882Z,100240.06
2022-09-11T05:52:01.323Z,100247.31
2022-09-11T05:57:07.764Z,100256.25
2022-09-11T06:02:13.199Z,100259.94
2022-09-11T06:07:26.732Z,100277.94
2022-09-11T06:12:29.647Z,100277.09
2022-09-11T06:17:33.693Z,100289.00
2022-09-11T06:22:37.807Z,100293.94
2022-09-11T06:27:40.583Z,100295.94
2022-09-11T06:32:43.663Z,100310.97
2022-09-11T06:37:47.848Z,100311.41
2022-09-11T06:42:50.534Z,100323.28
2022-09-11T06:47:53.203Z,100333.94
2022-09-11T06:52:57.404Z,100338.47
2022-09-11T06:58:03.583Z,100337.72
2022-09-11T07:03:07.537Z,100334.31
2022-09-11T07:08:13.549Z,100340.44
2022-09-11T07:13:19.357Z,100342.41
2022-09-11T07:18:23.124Z,100344.81
2022-09-11T07:23:27.278Z,100347.66
2022-09-11T07:28:30.909Z,100349.31
2022-09-11T07:33:34.387Z,100360.41
2022-09-11T07:38:42.215Z,100357.88
2022-09-11T07:43:48.202Z,100364.81
2022-09-11T07:48:51.133Z,100369.22
2022-09-11T07:53:57.877Z,100378.00
2022-09-11T07:59:01.940Z,100379.94
2022-09-11T08:04:07.418Z,100392.16
2022-09-11T08:09:14.958Z,100385.66
2022-09-11T08:14:23.305Z,100388.34
2022-09-11T08:19:26.261Z,100393.88
2022-09-11T08:24:33.775Z,100405.00
2022-09-11T08:29:38.730Z,100410.31
2022-09-11T08:34:42.257Z,100419.97
2022-09-11T08:39:48.612Z,100422.25
2022-09-11T08:44:54.189Z,100425.81
2022-09-11T08:50:21.143Z,100429.50
2022-09-11T08:55:29.985Z,100427.06
2022-09-11T09:00:34.196Z,100432.31
2022-09-11T09:05:42.918Z,100435.66
2022-09-11T09:10:52.119Z,100441.97
2022-09-11T09:16:01.607Z,100446.44
2022-09-11T09:21:06.816Z,100449.38
2022-09-11T09:26:17.129Z,100451.19
2022-09-11T09:31:22.639Z,100466.09
2022-09-11T09:36:29.180Z,100470.50
2022-09-11T09:42:09.776Z,100480.75
2022-09-11T09:47:13.392Z,100483.97
2022-09-11T09:52:18.734Z,100487.06
2022-09-11T09:57:23.453Z,100491.25
2022-09-11T10:02:40.378Z,100491.47
2022-09-11T10:07:47.364Z,100495.78
2022-09-11T10:12:59.795Z,100499.00
2022-09-11T10:18:35.950Z,100507.25
2022-09-11T10:23:46.043Z,100517.75
2022-09-11T10:28:50.011Z,100525.00
2022-09-11T10:33:54.692Z,100525.16
2022-09-11T10:38:57.445Z,100530.31
2022-09-11T10:44:02.356Z,100539.94
2022-09-11T10:49:18.074Z,100543.91
2022-09-11T10:54:24.004Z,100537.81
2022-09-11T10:59:32.921Z,100537.50
2022-09-11T11:04:35.520Z,100535.63
2022-09-11T11:09:44.364Z,100541.34
2022-09-11T11:14:59.020Z,100545.25
2022-09-11T11:20:11.452Z,100547.78
2022-09-11T11:25:16.589Z,100563.81
2022-09-11T11:30:21.235Z,100562.00
2022-09-11T11:35:24.313Z,100567.41
2022-09-11T11:40:29.854Z,100572.63
2022-09-11T11:45:36.181Z,100572.41
2022-09-11T11:50:42.046Z,100578.84
2022-09-11T11:55:49.468Z,100574.03
2022-09-11T12:00:57.153Z,100572.63
2022-09-11T12:05:59.825Z,100571.13
2022-09-11T12:11:03.835Z,100576.22
2022-09-11T12:16:15.043Z,100575.38
2022-09-11T12:21:43.609Z,100574.53
2022-09-11T12:26:46.213Z,100581.09
2022-09-11T12:32:24.288Z,100576.59
2022-09-11T12:37:28.349Z,100578.66
2022-09-11T12:42:59.801Z,100580.09
2022-09-11T12:48:08.530Z,100571.22
2022-09-11T12:53:16.527Z,100566.06
2022-09-11T12:58:25.597Z,100568.22
2022-09-11T13:03:29.974Z,100559.06
2022-09-11T13:08:34.400Z,100566.84
2022-09-11T13:13:43.369Z,100547.13
2022-09-11T13:18:47.403Z,100554.47
2022-09-11T13:23:50.971Z,100544.47
2022-09-11T13:28:54.988Z,100544.75
2022-09-11T13:34:00.071Z,100544.94
2022-09-11T13:39:03.489Z,100536.63
2022-09-11T13:44:10.976Z,100535.38
2022-09-11T13:49:27.394Z,100532.25
2022-09-11T13:54:31.930Z,100519.88
2022-09-11T13:59:39.849Z,100527.56
2022-09-11T14:04:43.999Z,100530.72
2022-09-11T14:09:51.863Z,100517.09
2022-09-11T14:14:55.674Z,100513.66
2022-09-11T14:20:01.312Z,100524.38
2022-09-11T14:25:10.539Z,100516.91
2022-09-11T14:30:27.761Z,100501.56
2022-09-11T14:35:39.710Z,100499.44
2022-09-11T14:40:45.825Z,100506.97
2022-09-11T14:45:50.559Z,100505.59
2022-09-11T14:50:54.599Z,100507.00
2022-09-11T14:55:58.220Z,100507.88
2022-09-11T15:01:01.069Z,100514.03
2022-09-11T15:06:05.219Z,100497.59
2022-09-11T15:11:07.920Z,100497.22
2022-09-11T15:16:10.667Z,100500.50
2022-09-11T15:21:14.707Z,100491.28
2022-09-11T15:26:17.373Z,100487.22
2022-09-11T15:31:20.148Z,100483.28
2022-09-11T15:36:26.209Z,100486.72
2022-09-11T15:41:30.056Z,100481.88
2022-09-11T15:46:32.741Z,100473.75
2022-09-11T15:51:36.846Z,100481.75
2022-09-11T15:56:39.470Z,100485.28
2022-09-11T16:01:42.301Z,100489.59
2022-09-11T16:06:47.608Z,100489.78
2022-09-11T16:11:50.693Z,100484.06
2022-09-11T16:16:53.537Z,100479.59
2022-09-11T16:21:58.082Z,100480.91
2022-09-11T16:27:01.645Z,100482.50
2022-09-11T16:32:04.398Z,100476.47
2022-09-11T16:37:08.581Z,100475.56
2022-09-11T16:42:11.549Z,100472.16
2022-09-11T16:47:14.188Z,100481.13
2022-09-11T16:52:18.197Z,100487.22
2022-09-11T16:57:20.872Z,100479.25
2022-09-11T17:02:23.550Z,100487.59
2022-09-11T17:07:27.763Z,100493.16
2022-09-11T17:12:30.417Z,100481.38
2022-09-11T17:17:33.477Z,100490.22
2022-09-11T17:22:38.031Z,100482.16
2022-09-11T17:27:40.676Z,100478.13
2022-09-11T17:32:43.390Z,100484.34
2022-09-11T17:37:47.542Z,100478.47
2022-09-11T17:42:50.226Z,100484.00
2022-09-11T17:47:53.067Z,100481.81
2022-09-11T17:52:57.036Z,100488.47
2022-09-11T17:57:59.784Z,100493.75
2022-09-11T18:03:02.559Z,100493.66
2022-09-11T18:08:06.570Z,100494.94
2022-09-11T18:13:09.444Z,100499.84
2022-09-11T18:18:12.093Z,100497.41
2022-09-11T18:23:16.652Z,100502.41
2022-09-11T18:28:20.224Z,100517.59
2022-09-11T18:33:23.010Z,100521.09
2022-09-11T18:38:31.041Z,100537.34
2022-09-11T18:43:35.655Z,100544.81
2022-09-11T18:48:39.371Z,100551.41
2022-09-11T18:53:43.910Z,100546.22
2022-09-11T18:58:47.751Z,100547.56
2022-09-11T19:03:51.746Z,100551.59
2022-09-11T19:08:56.534Z,100551.19
2022-09-11T19:14:03.229Z,100541.78
2022-09-11T19:19:06.997Z,100545.91
2022-09-11T19:24:12.593Z,100549.09
2022-09-11T19:29:15.827Z,100535.38
2022-09-11T19:34:18.554Z,100543.94
2022-09-11T19:39:22.638Z,100552.72
2022-09-11T19:44:25.948Z,100547.94
2022-09-11T19:49:29.704Z,100544.00
2022-09-11T19:54:34.608Z,100548.41
2022-09-11T19:59:38.174Z,100544.72
2022-09-11T20:04:41.010Z,100543.59
2022-09-11T20:09:45.060Z,100557.78
2022-09-11T20:14:48.195Z,100554.00
2022-09-11T20:19:51.050Z,100549.56
2022-09-11T20:24:55.197Z,100552.88
2022-09-11T20:29:57.827Z,100557.16
2022-09-11T20:35:00.730Z,100560.41
2022-09-11T20:40:05.517Z,100557.94
2022-09-11T20:45:09.042Z,100556.56
2022-09-11T20:50:13.177Z,100556.16
2022-09-11T20:55:17.404Z,100555.06
2022-09-11T21:00:20.361Z,100552.94
2022-09-11T21:05:23.098Z,100554.78
2022-09-11T21:10:28.388Z,100549.97
2022-09-11T21:15:31.182Z,100547.06
2022-09-11T21:20:33.920Z,100543.94
2022-09-11T21:25:40.861Z,100544.94
2022-09-11T21:30:43.878Z,100544.66
2022-09-11T21:35:50.714Z,100549.94
2022-09-11T21:40:54.880Z,100553.22
2022-09-11T21:45:57.581Z,100546.84
2022-09-11T21:51:06.223Z,100540.06
2022-09-11T21:56:16.415Z,100543.81
2022-09-11T22:01:19.945Z,100544.66
2022-09-11T22:06:24.747Z,100542.38
2022-09-11T22:11:28.975Z,100543.69
2022-09-11T22:16:31.695Z,100544.09
2022-09-11T22:21:34.410Z,100539.03
2022-09-11T22:26:38.482Z,100541.56
2022-09-11T22:31:41.163Z,100541.44
2022-09-11T22:36:43.872Z,100542.28
2022-09-11T22:41:47.882Z,100555.19
2022-09-11T22:46:50.855Z,100554.91
2022-09-11T22:51:53.533Z,100559.19
2022-09-11T22:56:57.546Z,100562.47
2022-09-11T23:02:00.439Z,100547.28
2022-09-11T23:07:19.773Z,100556.94
2022-09-11T23:12:23.764Z,100542.63
2022-09-11T23:17:26.968Z,100550.19
2022-09-11T23:22:30.126Z,100548.50
2022-09-11T23:27:34.199Z,100538.56
2022-09-11T23:32:41.665Z,100539.38
2022-09-11T23:37:45.508Z,100537.06
2022-09-11T23:42:49.707Z,100532.50
2022-09-11T23:47:52.390Z,100537.00
2022-09-11T23:52:55.029Z,100533.72
2022-09-11T23:57:59.328Z,100538.66
